Time;durP1;ratioP1;P1;durP2;ratioP2;P2;SDS_P1;SDS_P2;PMS_P1;PMS_P2;Temp;Humidity;BMP_temperature;BMP_pressure;BME280_temperature;BME280_humidity;BME280_pressure;Samples;Min_cycle;Max_cycle;Signal;HPM_P1;HPM_P2
2022/01/10 00:02:21;;;;;;;;;;;3.40;99.90;;;;;;5094353;28;19915;-46
2022/01/10 00:04:46;;;;;;;;;;;3.30;99.90;;;;;;5094753;28;20285;-49
2022/01/10 00:07:12;;;;;;;;;;;3.30;99.90;;;;;;5094313;28;19973;-50
2022/01/10 00:09:38;;;;;;;;;;;3.30;99.90;;;;;;5094225;28;19974;-46
2022/01/10 00:12:03;;;;;;;;;;;3.40;99.90;;;;;;5094582;28;19966;-49
2022/01/10 00:14:29;;;;;;;;;;;3.20;99.90;;;;;;5094755;28;19949;-47
2022/01/10 00:16:54;;;;;;;;;;;3.30;99.90;;;;;;5094615;28;20361;-47
2022/01/10 00:19:20;;;;;;;;;;;3.30;99.90;;;;;;5094497;28;20361;-47
2022/01/10 00:21:45;;;;;;;;;;;3.40;99.90;;;;;;5094285;28;20454;-48
2022/01/10 00:24:11;;;;;;;;;;;3.40;99.90;;;;;;5094444;28;19919;-45
2022/01/10 00:26:36;;;;;;;;;;;3.40;99.90;;;;;;5094463;28;19912;-46
2022/01/10 00:29:02;;;;;;;;;;;3.40;99.90;;;;;;5094126;28;20316;-51
2022/01/10 00:31:27;;;;;;;;;;;3.50;99.90;;;;;;5094413;28;19920;-47
2022/01/10 00:33:53;;;;;;;;;;;3.50;99.90;;;;;;5094407;28;19912;-50
2022/01/10 00:36:18;;;;;;;;;;;3.60;99.90;;;;;;5094345;28;20266;-45
2022/01/10 00:38:44;;;;;;;;;;;3.50;99.90;;;;;;5076035;28;20393;-48
2022/01/10 00:41:10;;;;;;;;;;;3.40;99.90;;;;;;5094306;28;19908;-46
2022/01/10 00:43:40;;;;;;;;;;;3.40;99.90;;;;;;5094104;28;19926;-48
2022/01/10 00:46:06;;;;;;;;;;;3.40;99.90;;;;;;5093386;28;19920;-46
2022/01/10 00:48:31;;;;;;;;;;;3.40;99.90;;;;;;5093970;28;20006;-48
2022/01/10 00:50:57;;;;;;;;;;;3.30;99.90;;;;;;5094165;28;19948;-51
2022/01/10 00:53:25;;;;;;;;;;;3.20;99.90;;;;;;5093837;28;20277;-46
2022/01/10 00:55:51;;;;;;;;;;;3.20;99.90;;;;;;5094237;28;19999;-50
2022/01/10 00:58:16;;;;;;;;;;;3.00;99.90;;;;;;5093878;28;19919;-47
2022/01/10 01:00:42;;;;;;;;;;;3.00;99.90;;;;;;5093784;28;20328;-48
2022/01/10 01:03:07;;;;;;;;;;;3.00;99.90;;;;;;5093765;28;20277;-45
2022/01/10 01:05:38;;;;;;;;;;;2.90;99.90;;;;;;5093699;28;20381;-47
2022/01/10 01:08:06;;;;;;;;;;;2.90;99.90;;;;;;5094101;28;19977;-46
2022/01/10 01:13:26;;;;;;;;;;;2.90;99.90;;;;;;5093713;28;19908;-45
2022/01/10 01:24:05;;;;;;;;;;;2.90;99.90;;;;;;5093607;28;20434;-49
2022/01/10 01:26:33;;;;;;;;;;;2.90;99.90;;;;;;5093532;28;19918;-48
2022/01/10 01:28:58;;;;;;;;;;;2.80;99.90;;;;;;5093356;28;19909;-49
2022/01/10 01:31:24;;;;;;;;;;;2.90;99.90;;;;;;5093640;28;19973;-46
2022/01/10 01:33:49;;;;;;;;;;;2.90;99.90;;;;;;5093486;28;19962;-48
2022/01/10 01:36:23;;;;;;;;;;;2.90;99.90;;;;;;5093207;28;19909;-48
2022/01/10 01:38:48;;;;;;;;;;;3.00;99.90;;;;;;5093218;28;20333;-48
2022/01/10 01:41:20;;;;;;;;;;;3.00;99.90;;;;;;5075334;28;19909;-47
2022/01/10 01:43:47;;;;;;;;;;;3.10;99.90;;;;;;5093073;28;19942;-46
2022/01/10 01:46:13;;;;;;;;;;;3.00;99.90;;;;;;5093689;28;19958;-46
2022/01/10 01:48:38;;;;;;;;;;;3.10;99.90;;;;;;5093628;28;20037;-46
2022/01/10 01:51:04;;;;;;;;;;;3.10;99.90;;;;;;5093123;28;20360;-47
2022/01/10 01:53:32;;;;;;;;;;;3.20;99.90;;;;;;5093037;28;19959;-46
2022/01/10 01:55:58;;;;;;;;;;;3.10;99.90;;;;;;5093363;28;19992;-48
2022/01/10 01:58:24;;;;;;;;;;;3.20;99.90;;;;;;5095553;28;20266;-46
2022/01/10 02:00:50;;;;;;;;;;;3.20;99.90;;;;;;5097071;28;19908;-46
2022/01/10 02:03:15;;;;;;;;;;;3.10;99.90;;;;;;5078683;28;20125;-47
2022/01/10 02:05:41;;;;;;;;;;;3.10;99.90;;;;;;5097279;28;19912;-47
2022/01/10 02:08:08;;;;;;;;;;;3.20;99.90;;;;;;5096972;28;19908;-46
2022/01/10 02:10:33;;;;;;;;;;;3.20;99.90;;;;;;5096556;28;19908;-47
2022/01/10 02:12:59;;;;;;;;;;;3.20;99.90;;;;;;5096168;28;19908;-47
2022/01/10 02:15:30;;;;;;;;;;;3.20;99.90;;;;;;5096338;28;19908;-46
2022/01/10 02:17:59;;;;;;;;;;;3.30;99.90;;;;;;5077825;28;20408;-47
2022/01/10 02:20:27;;;;;;;;;;;3.30;99.90;;;;;;5082357;28;19936;-48
2022/01/10 02:22:52;;;;;;;;;;;3.30;99.90;;;;;;5077111;28;19912;-47
2022/01/10 02:25:18;;;;;;;;;;;3.20;99.90;;;;;;5096591;28;19966;-47
2022/01/10 02:27:45;;;;;;;;;;;3.10;99.90;;;;;;5096474;28;19908;-47
2022/01/10 02:30:11;;;;;;;;;;;3.20;99.90;;;;;;5096337;28;19920;-45
2022/01/10 02:32:37;;;;;;;;;;;3.20;99.90;;;;;;5081789;28;20374;-45
2022/01/10 02:35:02;;;;;;;;;;;3.20;99.90;;;;;;5076759;28;19913;-47
2022/01/10 02:37:35;;;;;;;;;;;3.20;99.90;;;;;;5076087;28;19916;-48
2022/01/10 02:40:03;;;;;;;;;;;3.10;99.90;;;;;;5076261;28;19908;-46
2022/01/10 02:42:29;;;;;;;;;;;3.20;99.90;;;;;;5076235;28;19920;-50
2022/01/10 02:44:54;;;;;;;;;;;3.10;99.90;;;;;;5076318;28;20011;-48
2022/01/10 02:47:20;;;;;;;;;;;3.10;99.90;;;;;;5058243;28;19978;-47
2022/01/10 02:49:45;;;;;;;;;;;3.20;99.90;;;;;;5075888;28;20007;-48
2022/01/10 02:52:11;;;;;;;;;;;3.20;99.90;;;;;;5076077;28;19970;-47
2022/01/10 02:54:37;;;;;;;;;;;3.20;99.90;;;;;;5076415;28;19908;-50
2022/01/10 02:57:02;;;;;;;;;;;3.10;99.90;;;;;;5075771;28;20007;-46
2022/01/10 02:59:28;;;;;;;;;;;3.20;99.90;;;;;;5079753;28;19912;-49
2022/01/10 03:01:54;;;;;;;;;;;3.20;99.90;;;;;;5094493;28;20349;-47
2022/01/10 03:04:20;;;;;;;;;;;3.20;99.90;;;;;;5091886;28;19916;-50
2022/01/10 03:06:46;;;;;;;;;;;3.20;99.90;;;;;;5090312;28;19920;-51
2022/01/10 03:09:12;;;;;;;;;;;3.20;99.90;;;;;;5072122;28;20243;-47
2022/01/10 03:11:38;;;;;;;;;;;3.30;99.90;;;;;;5094157;28;19908;-48
2022/01/10 03:14:05;;;;;;;;;;;3.30;99.90;;;;;;5073069;28;19908;-48
2022/01/10 03:16:30;;;;;;;;;;;3.30;99.90;;;;;;5094852;28;19912;-49
2022/01/10 03:18:56;;;;;;;;;;;3.40;99.90;;;;;;5094050;28;20246;-50
2022/01/10 03:21:21;;;;;;;;;;;3.40;99.90;;;;;;5094115;28;19908;-49
2022/01/10 03:23:48;;;;;;;;;;;3.40;99.90;;;;;;5094005;28;19912;-49
2022/01/10 03:26:13;;;;;;;;;;;3.40;99.90;;;;;;5092399;28;19916;-47
2022/01/10 03:28:39;;;;;;;;;;;3.50;99.90;;;;;;5076093;28;19915;-49
2022/01/10 03:31:04;;;;;;;;;;;3.30;99.90;;;;;;5090417;28;20316;-50
2022/01/10 03:33:30;;;;;;;;;;;3.10;99.90;;;;;;5076112;28;19958;-47
2022/01/10 03:35:55;;;;;;;;;;;3.00;99.90;;;;;;5094242;28;19907;-49
2022/01/10 03:38:21;;;;;;;;;;;2.90;99.90;;;;;;5093658;28;20357;-49
2022/01/10 03:40:47;;;;;;;;;;;3.00;99.90;;;;;;5093888;28;19915;-51
2022/01/10 03:43:12;;;;;;;;;;;3.00;99.90;;;;;;5094122;28;19953;-45
2022/01/10 03:45:38;;;;;;;;;;;3.00;99.90;;;;;;5093809;28;19947;-48
2022/01/10 03:48:03;;;;;;;;;;;2.90;99.90;;;;;;5093658;28;19905;-50
2022/01/10 03:50:29;;;;;;;;;;;2.90;99.90;;;;;;5093993;28;19982;-48
2022/01/10 03:52:55;;;;;;;;;;;2.90;99.90;;;;;;5093668;28;20413;-52
2022/01/10 03:55:20;;;;;;;;;;;2.90;99.90;;;;;;5093603;28;19908;-49
2022/01/10 03:57:46;;;;;;;;;;;2.80;99.90;;;;;;5093396;28;20270;-49
2022/01/10 04:00:11;;;;;;;;;;;2.80;99.90;;;;;;5094819;28;19904;-46
2022/01/10 04:02:39;;;;;;;;;;;2.90;99.90;;;;;;5095058;28;19908;-46
2022/01/10 04:05:05;;;;;;;;;;;2.90;99.90;;;;;;5094655;28;19999;-46
2022/01/10 04:07:30;;;;;;;;;;;3.00;99.90;;;;;;5094955;28;20250;-47
2022/01/10 04:09:56;;;;;;;;;;;3.00;99.90;;;;;;5094567;28;19912;-47
2022/01/10 04:12:21;;;;;;;;;;;3.00;99.90;;;;;;5094509;28;19910;-49
2022/01/10 04:14:47;;;;;;;;;;;3.00;99.90;;;;;;5094830;28;19914;-48
2022/01/10 04:17:13;;;;;;;;;;;2.90;99.90;;;;;;5094504;28;19910;-46
2022/01/10 04:19:39;;;;;;;;;;;2.90;99.90;;;;;;5094610;28;20338;-48
2022/01/10 04:22:04;;;;;;;;;;;2.80;99.90;;;;;;5093811;28;19904;-48
2022/01/10 04:24:30;;;;;;;;;;;2.90;99.90;;;;;;5094539;28;19915;-47
2022/01/10 04:26:55;;;;;;;;;;;2.80;99.90;;;;;;5076403;28;19915;-47
2022/01/10 04:29:21;;;;;;;;;;;2.80;99.90;;;;;;5094182;28;20228;-45
2022/01/10 04:31:46;;;;;;;;;;;2.70;99.90;;;;;;5094483;28;19923;-50
2022/01/10 04:34:12;;;;;;;;;;;2.70;99.90;;;;;;5094188;28;19949;-48
2022/01/10 04:36:38;;;;;;;;;;;2.70;99.90;;;;;;5094046;28;20350;-47
2022/01/10 04:39:04;;;;;;;;;;;2.60;99.90;;;;;;5094091;28;19904;-48
2022/01/10 04:41:29;;;;;;;;;;;2.60;99.90;;;;;;5076234;28;19908;-48
2022/01/10 04:43:55;;;;;;;;;;;2.60;99.90;;;;;;5094218;28;19915;-49
2022/01/10 04:46:20;;;;;;;;;;;2.60;99.90;;;;;;5094164;28;19908;-47
2022/01/10 04:48:46;;;;;;;;;;;2.70;99.90;;;;;;5094108;28;19970;-47
2022/01/10 04:51:13;;;;;;;;;;;2.60;99.90;;;;;;5094386;28;20334;-48
2022/01/10 04:53:40;;;;;;;;;;;2.60;99.90;;;;;;5094074;28;19905;-47
2022/01/10 04:56:06;;;;;;;;;;;2.60;99.90;;;;;;5093888;28;19904;-48
2022/01/10 04:58:31;;;;;;;;;;;2.50;99.90;;;;;;5093954;28;19912;-44
2022/01/10 05:00:57;;;;;;;;;;;2.50;99.90;;;;;;5093885;28;19905;-49
2022/01/10 05:03:22;;;;;;;;;;;2.50;99.90;;;;;;5075939;28;20018;-45
2022/01/10 05:05:53;;;;;;;;;;;2.50;99.90;;;;;;5094049;28;20346;-49
2022/01/10 05:08:19;;;;;;;;;;;2.50;99.90;;;;;;5094144;28;19912;-48
2022/01/10 05:10:45;;;;;;;;;;;2.60;99.90;;;;;;5093835;28;19904;-47
2022/01/10 05:13:10;;;;;;;;;;;2.60;99.90;;;;;;5093455;28;19989;-46
2022/01/10 05:15:36;;;;;;;;;;;2.70;99.90;;;;;;5094014;28;19969;-50
2022/01/10 05:18:01;;;;;;;;;;;2.70;99.90;;;;;;5093964;28;19929;-46
2022/01/10 05:20:27;;;;;;;;;;;2.60;99.90;;;;;;5075805;28;19908;-49
2022/01/10 05:22:52;;;;;;;;;;;2.70;99.90;;;;;;5093401;28;19969;-47
2022/01/10 05:25:18;;;;;;;;;;;2.70;99.90;;;;;;5093574;28;19908;-48
2022/01/10 05:27:44;;;;;;;;;;;2.70;99.90;;;;;;5093462;28;19904;-45
2022/01/10 05:30:09;;;;;;;;;;;2.70;99.90;;;;;;5093460;28;20347;-47
2022/01/10 05:32:35;;;;;;;;;;;2.80;99.90;;;;;;5095829;28;19994;-48
2022/01/10 05:35:00;;;;;;;;;;;2.80;99.90;;;;;;5097361;28;19904;-45
2022/01/10 05:37:26;;;;;;;;;;;2.70;99.90;;;;;;5097999;28;19908;-50
2022/01/10 05:39:51;;;;;;;;;;;2.70;99.90;;;;;;5097376;28;19912;-50
2022/01/10 05:42:19;;;;;;;;;;;2.70;99.90;;;;;;5097183;28;19904;-50
2022/01/10 05:44:44;;;;;;;;;;;2.70;99.90;;;;;;5097582;28;19990;-46
2022/01/10 05:47:10;;;;;;;;;;;2.70;99.90;;;;;;5079302;28;19992;-48
2022/01/10 05:49:37;;;;;;;;;;;2.70;99.90;;;;;;5097359;28;19908;-47
2022/01/10 05:52:03;;;;;;;;;;;2.70;99.90;;;;;;5097073;28;19904;-52
2022/01/10 05:54:29;;;;;;;;;;;2.70;99.90;;;;;;5097311;28;19958;-46
2022/01/10 05:56:54;;;;;;;;;;;2.70;99.90;;;;;;5097212;28;20014;-46
2022/01/10 05:59:20;;;;;;;;;;;2.80;99.90;;;;;;5097212;28;19905;-46
2022/01/10 06:01:46;;;;;;;;;;;2.80;99.90;;;;;;5078511;28;19908;-50
2022/01/10 06:04:11;;;;;;;;;;;2.80;99.90;;;;;;5096704;28;20003;-47
2022/01/10 06:06:37;;;;;;;;;;;2.70;99.90;;;;;;5096547;28;19953;-46
2022/01/10 06:09:03;;;;;;;;;;;2.60;99.90;;;;;;5096645;28;19930;-48
2022/01/10 06:11:28;;;;;;;;;;;2.50;99.90;;;;;;5096941;28;19915;-47
2022/01/10 06:13:54;;;;;;;;;;;2.50;99.90;;;;;;5096693;28;19904;-46
2022/01/10 06:16:20;;;;;;;;;;;2.30;99.90;;;;;;5096470;28;19904;-50
2022/01/10 06:18:45;;;;;;;;;;;2.30;99.90;;;;;;5095899;28;19904;-48
2022/01/10 06:21:10;;;;;;;;;;;2.40;99.90;;;;;;5096694;28;19904;-47
2022/01/10 06:23:36;;;;;;;;;;;2.40;99.90;;;;;;5096269;28;19959;-48
2022/01/10 06:26:02;;;;;;;;;;;2.50;99.90;;;;;;5096281;28;20002;-50
2022/01/10 06:28:27;;;;;;;;;;;2.60;99.90;;;;;;5096018;28;19905;-46
2022/01/10 06:30:53;;;;;;;;;;;2.60;99.90;;;;;;5095960;28;19922;-48
2022/01/10 06:33:18;;;;;;;;;;;2.50;99.90;;;;;;5078074;28;19910;-48
2022/01/10 06:35:44;;;;;;;;;;;2.50;99.90;;;;;;5096250;28;19904;-50
2022/01/10 06:38:10;;;;;;;;;;;2.40;99.90;;;;;;5096675;28;19908;-50
2022/01/10 06:40:35;;;;;;;;;;;2.40;99.90;;;;;;5096111;28;20366;-48
2022/01/10 06:43:01;;;;;;;;;;;2.30;99.90;;;;;;5095910;28;20330;-48
2022/01/10 06:45:26;;;;;;;;;;;2.30;99.90;;;;;;5095740;28;19996;-51
2022/01/10 06:47:52;;;;;;;;;;;2.20;99.90;;;;;;5095908;28;19904;-49
2022/01/10 06:50:17;;;;;;;;;;;2.00;99.90;;;;;;5095765;28;19912;-46
2022/01/10 06:52:43;;;;;;;;;;;2.00;99.90;;;;;;5095947;28;19904;-49
2022/01/10 06:55:09;;;;;;;;;;;2.00;99.90;;;;;;5095401;28;19994;-45
2022/01/10 06:57:34;;;;;;;;;;;2.00;99.90;;;;;;5077107;28;19908;-47
2022/01/10 07:00:02;;;;;;;;;;;2.00;99.90;;;;;;5095529;28;19957;-46
2022/01/10 07:02:28;;;;;;;;;;;2.00;99.90;;;;;;5094905;28;19908;-50
2022/01/10 07:04:53;;;;;;;;;;;2.10;99.90;;;;;;5094353;28;20265;-49
2022/01/10 07:07:19;;;;;;;;;;;2.00;99.90;;;;;;5095905;28;20223;-48
2022/01/10 07:09:44;;;;;;;;;;;2.10;99.90;;;;;;5094599;28;19920;-47
2022/01/10 07:12:10;;;;;;;;;;;2.20;99.90;;;;;;5095232;28;20278;-48
2022/01/10 07:14:36;;;;;;;;;;;2.30;99.90;;;;;;5095196;28;20396;-52
2022/01/10 07:17:01;;;;;;;;;;;2.20;99.90;;;;;;5095292;28;19908;-48
2022/01/10 07:19:27;;;;;;;;;;;2.30;99.90;;;;;;5095842;28;19908;-47
2022/01/10 07:21:53;;;;;;;;;;;2.30;99.90;;;;;;5077011;28;20235;-47
2022/01/10 07:24:18;;;;;;;;;;;2.40;99.90;;;;;;5083179;28;20355;-48
2022/01/10 07:26:44;;;;;;;;;;;2.40;99.90;;;;;;5075369;28;19919;-50
2022/01/10 07:29:11;;;;;;;;;;;2.40;99.90;;;;;;5089064;28;19934;-46
2022/01/10 07:31:38;;;;;;;;;;;2.40;99.90;;;;;;5056771;28;19920;-49
2022/01/10 07:34:03;;;;;;;;;;;2.30;99.90;;;;;;5074973;28;20007;-48
2022/01/10 07:36:29;;;;;;;;;;;2.30;99.90;;;;;;5074773;28;20339;-48
2022/01/10 07:38:54;;;;;;;;;;;2.30;99.90;;;;;;5073985;28;19916;-49
2022/01/10 07:41:20;;;;;;;;;;;2.20;99.90;;;;;;5080042;28;20251;-46
2022/01/10 07:43:46;;;;;;;;;;;2.30;99.90;;;;;;5094802;28;20350;-45
2022/01/10 07:46:11;;;;;;;;;;;2.30;99.90;;;;;;5094725;28;19916;-48
2022/01/10 07:48:38;;;;;;;;;;;2.30;99.90;;;;;;5094533;28;19920;-46
2022/01/10 07:51:03;;;;;;;;;;;2.30;99.90;;;;;;5094432;28;19908;-48
2022/01/10 07:53:30;;;;;;;;;;;2.30;99.90;;;;;;5094748;28;20315;-47
2022/01/10 07:55:55;;;;;;;;;;;2.20;99.90;;;;;;5094793;28;19919;-46
2022/01/10 07:58:21;;;;;;;;;;;2.30;99.90;;;;;;5094354;28;19908;-50
2022/01/10 08:00:46;;;;;;;;;;;2.30;99.90;;;;;;5094351;28;20245;-45
2022/01/10 08:03:12;;;;;;;;;;;2.40;99.90;;;;;;5094137;28;20366;-45
2022/01/10 08:05:38;;;;;;;;;;;2.60;99.90;;;;;;5094037;28;19912;-48
2022/01/10 08:08:03;;;;;;;;;;;2.50;99.90;;;;;;5089586;28;19912;-52
2022/01/10 08:10:29;;;;;;;;;;;2.60;99.90;;;;;;5077613;28;20370;-51
2022/01/10 08:12:54;;;;;;;;;;;2.60;99.90;;;;;;5093771;28;20400;-47
2022/01/10 08:15:20;;;;;;;;;;;2.50;99.90;;;;;;5086399;28;19913;-51
2022/01/10 08:17:46;;;;;;;;;;;2.30;99.90;;;;;;5074032;28;19935;-47
2022/01/10 08:20:12;;;;;;;;;;;2.20;99.90;;;;;;5078684;28;19912;-48
2022/01/10 08:22:37;;;;;;;;;;;2.40;99.90;;;;;;5060581;28;19912;-49
2022/01/10 08:25:03;;;;;;;;;;;2.40;99.90;;;;;;5067911;28;19920;-56
2022/01/10 08:27:29;;;;;;;;;;;2.50;99.90;;;;;;5093662;28;19970;-49
2022/01/10 08:29:54;;;;;;;;;;;2.60;99.90;;;;;;5056651;28;19909;-47
2022/01/10 08:32:20;;;;;;;;;;;2.60;99.90;;;;;;5073758;28;19947;-50
2022/01/10 08:34:46;;;;;;;;;;;2.50;99.90;;;;;;5073332;28;19913;-49
2022/01/10 08:37:11;;;;;;;;;;;2.40;99.90;;;;;;5055297;28;19985;-50
2022/01/10 08:39:37;;;;;;;;;;;2.40;99.90;;;;;;5073144;28;19924;-52
2022/01/10 08:42:03;;;;;;;;;;;2.50;99.90;;;;;;5073833;28;19999;-55
2022/01/10 08:44:28;;;;;;;;;;;2.50;99.90;;;;;;5093043;28;19963;-50
2022/01/10 08:46:54;;;;;;;;;;;2.40;99.90;;;;;;5093539;28;19912;-53
2022/01/10 08:49:19;;;;;;;;;;;2.40;99.90;;;;;;5093689;28;19909;-50
2022/01/10 08:51:46;;;;;;;;;;;2.40;99.90;;;;;;5075651;28;20358;-50
2022/01/10 08:54:12;;;;;;;;;;;2.40;99.90;;;;;;5093635;28;19991;-47
2022/01/10 08:56:37;;;;;;;;;;;2.40;99.90;;;;;;5093453;28;19946;-46
2022/01/10 08:59:06;;;;;;;;;;;2.50;99.90;;;;;;5092920;28;19912;-55
2022/01/10 09:01:32;;;;;;;;;;;2.50;99.90;;;;;;5093182;28;19970;-50
2022/01/10 09:03:58;;;;;;;;;;;2.60;99.90;;;;;;5093449;28;19920;-48
2022/01/10 09:06:24;;;;;;;;;;;2.60;99.90;;;;;;5092912;28;20048;-46
2022/01/10 09:08:51;;;;;;;;;;;2.50;99.90;;;;;;5093106;28;19908;-53
2022/01/10 09:11:16;;;;;;;;;;;2.40;99.90;;;;;;5075220;28;19919;-49
2022/01/10 09:13:42;;;;;;;;;;;2.50;99.90;;;;;;5093177;28;20242;-51
2022/01/10 09:16:08;;;;;;;;;;;2.50;99.90;;;;;;5093058;28;19908;-51
2022/01/10 09:18:34;;;;;;;;;;;2.50;99.90;;;;;;5074733;28;19952;-56
2022/01/10 09:21:00;;;;;;;;;;;2.60;99.90;;;;;;5072917;28;20395;-53
2022/01/10 09:23:26;;;;;;;;;;;2.90;99.90;;;;;;5055002;28;19924;-53
2022/01/10 09:25:52;;;;;;;;;;;3.20;99.90;;;;;;5073014;28;19930;-51
2022/01/10 09:28:18;;;;;;;;;;;3.10;99.90;;;;;;5072753;28;19935;-54
2022/01/10 09:30:43;;;;;;;;;;;3.40;99.90;;;;;;5072817;28;19977;-48
2022/01/10 09:33:09;;;;;;;;;;;3.40;99.90;;;;;;5073074;28;19914;-48
2022/01/10 09:35:35;;;;;;;;;;;3.30;99.90;;;;;;5073273;28;19947;-49
2022/01/10 09:38:00;;;;;;;;;;;3.20;99.90;;;;;;5072753;28;20287;-55
2022/01/10 09:40:26;;;;;;;;;;;3.00;99.90;;;;;;5072515;28;20286;-49
2022/01/10 09:42:52;;;;;;;;;;;3.10;99.90;;;;;;5072917;28;20358;-49
2022/01/10 09:45:18;;;;;;;;;;;3.10;99.90;;;;;;5072738;28;19919;-47
2022/01/10 09:47:43;;;;;;;;;;;3.10;99.90;;;;;;5072598;28;19916;-51
2022/01/10 09:50:09;;;;;;;;;;;3.20;99.90;;;;;;5072563;28;19909;-49
2022/01/10 09:52:35;;;;;;;;;;;3.40;99.90;;;;;;5072614;28;20278;-50
2022/01/10 09:55:01;;;;;;;;;;;3.20;99.90;;;;;;5072455;28;20273;-53
2022/01/10 09:57:26;;;;;;;;;;;3.30;99.90;;;;;;5054645;28;19908;-46
2022/01/10 09:59:52;;;;;;;;;;;3.40;99.90;;;;;;5072269;28;19908;-48
2022/01/10 10:02:17;;;;;;;;;;;3.40;99.90;;;;;;5054523;28;20340;-52
2022/01/10 10:04:43;;;;;;;;;;;3.50;99.90;;;;;;5072407;28;19966;-49
2022/01/10 10:07:09;;;;;;;;;;;3.70;99.90;;;;;;5072176;28;19948;-52
2022/01/10 10:09:35;;;;;;;;;;;3.80;99.90;;;;;;5072682;28;19909;-55
2022/01/10 10:12:01;;;;;;;;;;;3.90;99.90;;;;;;5089231;28;20013;-50
2022/01/10 10:14:27;;;;;;;;;;;3.70;99.90;;;;;;5092819;28;20350;-51
2022/01/10 10:16:54;;;;;;;;;;;3.80;99.90;;;;;;5074333;28;19915;-50
2022/01/10 10:19:22;;;;;;;;;;;3.90;99.90;;;;;;5094259;28;19908;-54
2022/01/10 10:21:49;;;;;;;;;;;4.00;99.90;;;;;;5094009;28;19916;-47
2022/01/10 10:24:14;;;;;;;;;;;4.40;99.90;;;;;;5085495;28;19923;-49
2022/01/10 10:26:40;;;;;;;;;;;4.30;99.90;;;;;;5076072;28;19913;-49
2022/01/10 10:29:06;;;;;;;;;;;4.00;99.90;;;;;;5088737;28;20000;-53
2022/01/10 10:31:31;;;;;;;;;;;4.10;99.90;;;;;;5091612;28;19974;-48
2022/01/10 10:33:58;;;;;;;;;;;4.00;99.90;;;;;;5086508;28;19909;-53
2022/01/10 10:36:25;;;;;;;;;;;4.30;99.90;;;;;;5075338;28;19909;-51
2022/01/10 10:38:51;;;;;;;;;;;4.10;99.90;;;;;;5091673;28;20352;-50
2022/01/10 10:41:17;;;;;;;;;;;4.20;99.90;;;;;;5091470;28;19965;-50
2022/01/10 10:43:43;;;;;;;;;;;4.50;99.90;;;;;;5082752;28;19912;-51
2022/01/10 10:46:13;;;;;;;;;;;4.40;99.90;;;;;;5075773;28;19967;-50
2022/01/10 10:48:39;;;;;;;;;;;4.20;99.90;;;;;;5075523;28;19908;-47
2022/01/10 10:51:05;;;;;;;;;;;4.10;99.90;;;;;;5080560;28;19936;-48
2022/01/10 10:53:31;;;;;;;;;;;4.20;99.90;;;;;;5087635;28;20355;-49
2022/01/10 10:55:57;;;;;;;;;;;3.90;99.90;;;;;;5095556;28;19982;-50
2022/01/10 10:58:23;;;;;;;;;;;3.80;99.90;;;;;;5076391;28;19909;-49
2022/01/10 11:00:48;;;;;;;;;;;3.60;99.90;;;;;;5076227;28;19908;-50
2022/01/10 11:03:16;;;;;;;;;;;3.60;99.90;;;;;;5094920;28;19964;-50
2022/01/10 11:05:43;;;;;;;;;;;3.50;99.90;;;;;;5095642;28;19920;-47
2022/01/10 11:08:09;;;;;;;;;;;3.60;99.90;;;;;;5094592;28;20389;-49
2022/01/10 11:10:35;;;;;;;;;;;3.60;99.90;;;;;;5082028;28;20004;-50
2022/01/10 11:13:01;;;;;;;;;;;3.70;99.90;;;;;;5075115;28;19915;-49
2022/01/10 11:15:27;;;;;;;;;;;3.40;99.90;;;;;;5094134;28;19908;-52
2022/01/10 11:17:53;;;;;;;;;;;3.40;99.90;;;;;;5071792;28;20252;-52
2022/01/10 11:20:23;;;;;;;;;;;3.40;99.90;;;;;;5103939;28;20370;-55
2022/01/10 11:22:50;;;;;;;;;;;3.40;99.90;;;;;;5115632;28;19911;-42
2022/01/10 11:25:20;;;;;;;;;;;3.50;99.90;;;;;;5112678;28;20018;-49
2022/01/10 11:27:46;;;;;;;;;;;3.30;99.90;;;;;;5094714;28;20331;-49
2022/01/10 11:30:30;;;;;;;;;;;3.30;99.90;;;;;;5094442;28;19927;-48
2022/01/10 11:33:07;;;;;;;;;;;3.40;99.90;;;;;;5076874;28;19916;-47
2022/01/10 11:35:38;;;;;;;;;;;3.10;99.90;;;;;;5094701;28;19915;-47
2022/01/10 11:38:23;;;;;;;;;;;3.40;99.90;;;;;;5095214;28;19916;-54
2022/01/10 11:40:50;;;;;;;;;;;3.40;99.90;;;;;;5094724;28;19977;-48
2022/01/10 11:43:28;;;;;;;;;;;3.60;99.90;;;;;;5094177;28;20022;-48
2022/01/10 11:46:05;;;;;;;;;;;3.50;99.90;;;;;;5094639;28;19919;-48
2022/01/10 11:48:40;;;;;;;;;;;3.60;99.90;;;;;;5094705;28;19912;-47
2022/01/10 11:51:11;;;;;;;;;;;3.70;99.90;;;;;;5094695;28;19912;-47
2022/01/10 11:53:40;;;;;;;;;;;3.60;99.90;;;;;;5094320;28;20290;-41
2022/01/10 11:56:18;;;;;;;;;;;3.60;99.90;;;;;;5076052;28;19919;-53
2022/01/10 11:59:03;;;;;;;;;;;3.60;99.90;;;;;;5094447;28;19918;-47
2022/01/10 12:01:36;;;;;;;;;;;3.80;99.90;;;;;;5093882;28;19908;-52
2022/01/10 12:04:02;;;;;;;;;;;3.80;99.90;;;;;;5075425;28;19965;-48
2022/01/10 12:06:27;;;;;;;;;;;3.60;99.90;;;;;;5074058;28;19917;-48
2022/01/10 12:08:56;;;;;;;;;;;3.40;99.90;;;;;;5073878;28;19912;-45
2022/01/10 12:11:27;;;;;;;;;;;3.50;99.90;;;;;;5073944;28;19916;-48
2022/01/10 12:13:54;;;;;;;;;;;3.50;99.90;;;;;;5073795;28;19915;-49
2022/01/10 12:16:19;;;;;;;;;;;3.50;99.90;;;;;;5073571;28;20008;-47
2022/01/10 12:18:45;;;;;;;;;;;3.50;99.90;;;;;;5073309;28;19939;-50
2022/01/10 12:21:11;;;;;;;;;;;3.50;99.90;;;;;;5073254;28;19908;-54
2022/01/10 12:23:36;;;;;;;;;;;3.50;99.90;;;;;;5073403;28;20074;-43
2022/01/10 12:26:02;;;;;;;;;;;3.60;99.90;;;;;;5073388;28;19966;-47
2022/01/10 12:28:28;;;;;;;;;;;3.60;99.90;;;;;;5055560;28;19962;-47
2022/01/10 12:30:54;;;;;;;;;;;3.60;99.90;;;;;;5073171;28;20011;-49
2022/01/10 12:33:20;;;;;;;;;;;3.60;99.90;;;;;;5064622;28;19912;-47
2022/01/10 12:35:46;;;;;;;;;;;3.60;99.90;;;;;;5093452;28;19922;-45
2022/01/10 12:38:12;;;;;;;;;;;3.70;99.90;;;;;;5093302;28;19915;-49
2022/01/10 12:40:37;;;;;;;;;;;3.80;99.90;;;;;;5093386;28;20425;-52
2022/01/10 12:43:03;;;;;;;;;;;3.80;99.90;;;;;;5092780;28;20034;-48
2022/01/10 12:45:35;;;;;;;;;;;3.80;99.90;;;;;;5093255;28;19919;-45
2022/01/10 12:48:00;;;;;;;;;;;3.80;99.90;;;;;;5094065;28;19908;-46
2022/01/10 12:50:26;;;;;;;;;;;3.70;99.90;;;;;;5093716;28;19935;-45
2022/01/10 12:52:55;;;;;;;;;;;3.50;99.90;;;;;;5093372;28;20266;-47
2022/01/10 12:55:20;;;;;;;;;;;3.40;99.90;;;;;;5075193;28;19908;-45
2022/01/10 12:57:49;;;;;;;;;;;3.50;99.90;;;;;;5093470;28;19912;-44
2022/01/10 13:00:16;;;;;;;;;;;3.50;99.90;;;;;;5093605;28;19986;-47
2022/01/10 13:02:41;;;;;;;;;;;3.50;99.90;;;;;;5089002;28;19918;-44
2022/01/10 13:05:07;;;;;;;;;;;3.70;99.90;;;;;;5085412;28;19916;-42
2022/01/10 13:07:34;;;;;;;;;;;3.80;99.90;;;;;;5072918;28;19998;-42
2022/01/10 13:10:06;;;;;;;;;;;3.80;99.90;;;;;;5080003;28;19962;-48
2022/01/10 13:12:32;;;;;;;;;;;3.60;99.90;;;;;;5093078;28;19908;-44
2022/01/10 13:15:18;;;;;;;;;;;3.30;99.90;;;;;;5092946;28;19974;-41
2022/01/10 13:17:51;;;;;;;;;;;3.20;99.90;;;;;;5092296;28;19920;-46
2022/01/10 13:20:19;;;;;;;;;;;3.30;99.90;;;;;;5083094;28;19962;-44
2022/01/10 13:22:44;;;;;;;;;;;3.50;99.90;;;;;;5080615;28;20274;-46
2022/01/10 13:25:17;;;;;;;;;;;3.60;99.90;;;;;;5073560;28;19913;-45
2022/01/10 13:27:50;;;;;;;;;;;3.70;99.90;;;;;;5089323;28;19918;-45
2022/01/10 13:30:25;;;;;;;;;;;3.70;99.90;;;;;;5091035;28;19920;-43
2022/01/10 13:32:55;;;;;;;;;;;3.80;99.90;;;;;;5087048;28;19921;-43
2022/01/10 13:35:20;;;;;;;;;;;3.80;99.90;;;;;;5073953;28;19915;-45
2022/01/10 13:37:56;;;;;;;;;;;3.80;99.90;;;;;;5073565;28;19917;-45
2022/01/10 13:40:22;;;;;;;;;;;3.80;99.90;;;;;;5090321;28;19991;-45
2022/01/10 13:42:50;;;;;;;;;;;3.80;99.90;;;;;;5090172;28;19962;-42
2022/01/10 13:45:43;;;;;;;;;;;3.80;99.90;;;;;;5089284;28;19972;-44
2022/01/10 13:48:13;;;;;;;;;;;3.90;99.90;;;;;;5074346;28;19916;-46
2022/01/10 13:50:46;;;;;;;;;;;3.90;99.90;;;;;;5091481;28;20028;-43
2022/01/10 13:53:13;;;;;;;;;;;3.80;99.90;;;;;;5074241;28;19920;-45
2022/01/10 13:55:40;;;;;;;;;;;3.80;99.90;;;;;;5077775;28;19908;-42
2022/01/10 13:58:21;;;;;;;;;;;3.80;99.90;;;;;;5076656;28;19919;-45
2022/01/10 14:00:54;;;;;;;;;;;3.90;99.90;;;;;;5070239;28;19931;-47
2022/01/10 14:03:27;;;;;;;;;;;3.90;99.90;;;;;;5088442;28;20362;-43
2022/01/10 14:06:11;;;;;;;;;;;3.90;99.90;;;;;;5078299;28;19934;-45
2022/01/10 14:08:39;;;;;;;;;;;4.00;99.90;;;;;;5087261;28;19912;-43
2022/01/10 14:11:05;;;;;;;;;;;3.70;99.90;;;;;;5078162;28;20011;-43
2022/01/10 14:13:31;;;;;;;;;;;3.70;99.90;;;;;;5092724;28;20005;-43
2022/01/10 14:15:58;;;;;;;;;;;3.50;99.90;;;;;;5091165;28;20057;-45
2022/01/10 14:18:23;;;;;;;;;;;3.50;99.90;;;;;;5096018;28;19908;-47
2022/01/10 14:20:49;;;;;;;;;;;3.40;99.90;;;;;;5096337;28;19934;-45
2022/01/10 14:23:17;;;;;;;;;;;3.50;99.90;;;;;;5076600;28;19919;-45
2022/01/10 14:25:43;;;;;;;;;;;3.60;99.90;;;;;;5082387;28;19912;-43
2022/01/10 14:28:09;;;;;;;;;;;3.70;99.90;;;;;;5105333;28;19915;-43
2022/01/10 14:30:34;;;;;;;;;;;3.70;99.90;;;;;;5058574;28;20363;-45
2022/01/10 14:33:01;;;;;;;;;;;3.90;99.90;;;;;;5077510;28;19920;-44
2022/01/10 14:35:27;;;;;;;;;;;3.90;99.90;;;;;;5088003;28;19912;-44
2022/01/10 14:37:52;;;;;;;;;;;3.80;99.90;;;;;;5093869;28;20416;-43
2022/01/10 14:40:18;;;;;;;;;;;3.60;99.90;;;;;;5081536;28;19976;-45